createdAt,value
2022-08-17T00:00:44.136Z,99714.22
2022-08-17T00:03:19.865Z,99713.81
2022-08-17T00:06:04.903Z,99718.72
2022-08-17T00:08:38.425Z,99708.91
2022-08-17T00:11:35.286Z,99717.03
2022-08-17T00:14:15.417Z,99712.09
2022-08-17T00:16:57.094Z,99710.06
2022-08-17T00:19:27.240Z,99713.91
2022-08-17T00:22:34.131Z,99713.06
2022-08-17T00:24:48.702Z,99710.78
2022-08-17T00:27:17.190Z,99716.94
2022-08-17T00:29:45.953Z,99702.66
2022-08-17T00:33:12.681Z,99690.03
2022-08-17T00:35:14.446Z,99696.69
2022-08-17T00:37:45.670Z,99701.72
2022-08-17T00:40:15.614Z,99698.16
2022-08-17T00:42:47.020Z,99704.56
2022-08-17T00:45:16.835Z,99709.50
2022-08-17T00:47:44.741Z,99702.31
2022-08-17T00:50:18.995Z,99712.88
2022-08-17T00:52:57.500Z,99709.47
2022-08-17T00:55:26.494Z,99706.63
2022-08-17T00:58:00.095Z,99702.22
2022-08-17T01:00:37.657Z,99708.94
2022-08-17T01:03:27.530Z,99706.09
2022-08-17T01:06:02.667Z,99692.13
2022-08-17T01:08:33.081Z,99701.94
2022-08-17T01:11:03.174Z,99689.13
2022-08-17T01:13:43.829Z,99698.50
2022-08-17T01:16:31.574Z,99708.50
2022-08-17T01:19:26.242Z,99704.38
2022-08-17T01:22:01.737Z,99704.22
2022-08-17T01:24:30.624Z,99694.97
2022-08-17T01:27:02.748Z,99688.53
2022-08-17T01:29:41.759Z,99689.53
2022-08-17T01:32:11.139Z,99684.81
2022-08-17T01:34:43.322Z,99684.28
2022-08-17T01:37:28.122Z,99685.41
2022-08-17T01:40:18.385Z,99696.97
2022-08-17T01:42:56.840Z,99702.97
2022-08-17T01:45:30.570Z,99693.56
2022-08-17T01:47:58.743Z,99703.41
2022-08-17T01:50:34.595Z,99693.31
2022-08-17T01:53:15.323Z,99710.97
2022-08-17T01:55:58.358Z,99707.53
2022-08-17T01:58:27.780Z,99721.81
2022-08-17T02:01:00.566Z,99714.81
2022-08-17T02:03:31.481Z,99723.09
2022-08-17T02:05:59.946Z,99720.94
2022-08-17T02:08:38.103Z,99717.50
2022-08-17T02:11:14.700Z,99724.78
2022-08-17T02:13:45.196Z,99724.50
2022-08-17T02:16:13.844Z,99720.94
2022-08-17T02:18:42.163Z,99718.34
2022-08-17T02:21:10.666Z,99717.50
2022-08-17T02:23:43.354Z,99723.22
2022-08-17T02:26:24.095Z,99720.09
2022-08-17T02:28:55.624Z,99714.09
2022-08-17T02:31:23.485Z,99716.81
2022-08-17T02:34:00.261Z,99716.06
2022-08-17T02:36:34.744Z,99716.38
2022-08-17T02:39:07.084Z,99715.38
2022-08-17T02:41:36.511Z,99722.50
2022-08-17T02:44:06.018Z,99713.53
2022-08-17T02:46:33.977Z,99706.81
2022-08-17T02:49:01.970Z,99718.50
2022-08-17T02:51:29.937Z,99712.66
2022-08-17T02:54:38.941Z,99712.66
2022-08-17T02:56:46.662Z,99706.53
2022-08-17T02:59:14.579Z,99702.69
2022-08-17T03:01:42.855Z,99711.38
2022-08-17T03:04:11.055Z,99713.66
2022-08-17T03:06:39.606Z,99709.53
2022-08-17T03:09:09.476Z,99712.09
2022-08-17T03:11:37.402Z,99726.91
2022-08-17T03:14:05.339Z,99716.22
2022-08-17T03:16:33.532Z,99724.09
2022-08-17T03:19:02.625Z,99725.50
2022-08-17T03:21:30.527Z,99724.19
2022-08-17T03:23:58.442Z,99726.06
2022-08-17T03:26:29.647Z,99726.91
2022-08-17T03:28:57.922Z,99739.03
2022-08-17T03:31:25.916Z,99803.78
2022-08-17T03:33:53.912Z,99756.88
2022-08-17T03:36:22.028Z,99787.25
2022-08-17T03:38:50.410Z,99776.53
2022-08-17T03:41:19.071Z,99756.88
2022-08-17T03:43:47.945Z,99765.28
2022-08-17T03:46:35.693Z,99768.72
2022-08-17T03:49:25.473Z,99768.72
2022-08-17T03:52:14.707Z,99773.41
2022-08-17T03:55:03.080Z,99773.72
2022-08-17T03:57:32.652Z,99779.66
2022-08-17T04:00:00.810Z,99773.72
2022-08-17T04:02:34.080Z,99770.84
2022-08-17T04:05:02.731Z,99777.84
2022-08-17T04:07:32.400Z,99772.72
2022-08-17T04:10:00.867Z,99780.25
2022-08-17T04:12:42.346Z,99787.97
2022-08-17T04:15:12.978Z,99782.22
2022-08-17T04:17:41.184Z,99781.69
2022-08-17T04:20:11.382Z,99776.84
2022-08-17T04:22:40.605Z,99797.53
2022-08-17T04:25:17.056Z,99796.94
2022-08-17T04:27:45.205Z,99797.78
2022-08-17T04:30:14.203Z,99789.97
2022-08-17T04:33:04.895Z,99804.50
2022-08-17T04:35:53.980Z,99802.94
2022-08-17T04:38:26.001Z,99795.94
2022-08-17T04:41:14.351Z,99807.34
2022-08-17T04:43:46.805Z,99815.22
2022-08-17T04:46:22.805Z,99822.19
2022-08-17T04:48:55.901Z,99824.03
2022-08-17T04:51:56.880Z,99824.31
2022-08-17T04:54:29.738Z,99822.59
2022-08-17T04:56:58.146Z,99804.91
2022-08-17T04:59:26.120Z,99809.19
2022-08-17T05:01:54.949Z,99813.47
2022-08-17T05:04:34.299Z,99811.16
2022-08-17T05:07:04.609Z,99809.34
2022-08-17T05:09:32.941Z,99813.59
2022-08-17T05:12:02.622Z,99805.63
2022-08-17T05:14:32.852Z,99827.13
2022-08-17T05:17:07.145Z,99834.19
2022-08-17T05:19:39.687Z,99825.16
2022-08-17T05:22:08.156Z,99822.44
2022-08-17T05:24:40.807Z,99815.59
2022-08-17T05:27:14.298Z,99807.13
2022-08-17T05:29:47.179Z,99813.53
2022-08-17T05:32:37.420Z,99818.09
2022-08-17T05:35:03.732Z,99807.19
2022-08-17T05:37:32.381Z,99805.13
2022-08-17T05:40:00.414Z,99804.41
2022-08-17T05:42:28.672Z,99809.66
2022-08-17T05:44:58.848Z,99801.75
2022-08-17T05:47:28.366Z,99811.31
2022-08-17T05:49:57.157Z,99811.56
2022-08-17T05:53:00.379Z,99807.97
2022-08-17T05:55:51.656Z,99816.69
2022-08-17T05:59:08.743Z,99827.53
2022-08-17T06:01:58.050Z,99815.38
2022-08-17T06:04:41.335Z,99815.94
2022-08-17T06:07:27.643Z,99837.28
2022-08-17T06:10:23.213Z,99831.78
2022-08-17T06:13:28.021Z,99835.19
2022-08-17T06:16:33.575Z,99830.66
2022-08-17T06:19:17.500Z,99819.69
2022-08-17T06:21:50.868Z,99813.50
2022-08-17T06:24:34.271Z,99805.63
2022-08-17T06:27:11.571Z,99811.16
2022-08-17T06:30:09.652Z,99847.25
2022-08-17T06:32:42.804Z,99855.13
2022-08-17T06:35:16.114Z,99849.91
2022-08-17T06:38:05.620Z,99845.84
2022-08-17T06:41:43.577Z,99842.44
2022-08-17T06:45:02.977Z,99835.13
2022-08-17T06:47:51.522Z,99850.81
2022-08-17T06:50:47.255Z,99847.25
2022-08-17T06:53:22.251Z,99848.94
2022-08-17T06:56:14.184Z,99859.69
2022-08-17T06:58:44.882Z,99848.44
2022-08-17T07:01:19.395Z,99845.38
2022-08-17T07:03:55.002Z,99836.06
2022-08-17T07:06:29.790Z,99840.25
2022-08-17T07:09:18.797Z,99837.06
2022-08-17T07:11:56.206Z,99830.06
2022-08-17T07:14:48.250Z,99840.31
2022-08-17T07:17:18.964Z,99830.78
2022-08-17T07:19:52.858Z,99842.03
2022-08-17T07:22:25.952Z,99847.69
2022-08-17T07:25:09.510Z,99841.94
2022-08-17T07:27:41.948Z,99838.00
2022-08-17T07:30:18.578Z,99839.09
2022-08-17T07:33:13.409Z,99840.94
2022-08-17T07:35:44.053Z,99850.34
2022-08-17T07:38:25.147Z,99834.81
2022-08-17T07:40:58.004Z,99851.41
2022-08-17T07:43:29.401Z,99844.00
2022-08-17T07:46:48.400Z,99858.16
2022-08-17T07:49:31.876Z,99851.38
2022-08-17T07:52:50.484Z,99850.63
2022-08-17T07:55:35.001Z,99854.56
2022-08-17T07:58:03.894Z,99848.97
2022-08-17T08:00:33.650Z,99843.25
2022-08-17T08:03:20.735Z,99833.91
2022-08-17T08:06:01.557Z,99859.13
2022-08-17T08:08:43.884Z,99846.88
2022-08-17T08:11:27.955Z,99841.38
2022-08-17T08:13:58.715Z,99846.19
2022-08-17T08:16:31.765Z,99857.59
2022-08-17T08:19:02.899Z,99844.13
2022-08-17T08:21:52.196Z,99853.84
2022-08-17T08:25:08.450Z,99858.78
2022-08-17T08:28:09.855Z,99857.28
2022-08-17T08:30:47.129Z,99846.53
2022-08-17T08:33:49.750Z,99849.28
2022-08-17T08:36:56.929Z,99861.88
2022-08-17T08:39:58.677Z,99867.84
2022-08-17T08:42:48.154Z,99866.47
2022-08-17T08:45:45.277Z,99863.41
2022-08-17T08:48:45.972Z,99852.00
2022-08-17T08:51:47.926Z,99844.16
2022-08-17T08:54:57.062Z,99808.72
2022-08-17T08:58:08.625Z,99814.16
2022-08-17T09:01:01.041Z,99828.31
2022-08-17T09:05:12.735Z,99843.47
2022-08-17T09:07:43.718Z,99859.00
2022-08-17T09:10:11.923Z,99864.25
2022-08-17T09:12:54.501Z,99869.88
2022-08-17T09:15:31.469Z,99855.59
2022-08-17T09:19:01.747Z,99849.44
2022-08-17T09:21:33.943Z,99844.84
2022-08-17T09:24:33.200Z,99855.09
2022-08-17T09:27:30.625Z,99861.41
2022-08-17T09:30:09.420Z,99868.56
2022-08-17T09:32:55.207Z,99853.56
2022-08-17T09:36:05.741Z,99871.28
2022-08-17T09:39:42.285Z,99866.88
2022-08-17T09:43:05.532Z,99873.66
2022-08-17T09:45:42.615Z,99841.06
2022-08-17T09:48:38.918Z,99839.88
2022-08-17T09:51:26.408Z,99854.03
2022-08-17T09:53:54.506Z,99880.66
2022-08-17T09:56:27.897Z,99890.34
2022-08-17T09:59:22.416Z,99904.56
2022-08-17T10:02:18.889Z,99926.91
2022-08-17T10:05:37.475Z,99944.84
2022-08-17T10:08:37.398Z,99953.88
2022-08-17T10:12:11.461Z,99971.06
2022-08-17T10:15:19.538Z,99977.34
2022-08-17T10:17:54.013Z,99977.81
2022-08-17T10:21:21.548Z,99983.75
2022-08-17T10:24:30.412Z,99996.84
2022-08-17T10:27:03.692Z,99988.63
2022-08-17T10:29:48.974Z,100002.44
2022-08-17T10:32:45.610Z,100010.63
2022-08-17T10:35:30.454Z,100024.13
2022-08-17T10:38:25.484Z,100008.25
2022-08-17T10:41:00.454Z,100015.28
2022-08-17T10:44:38.631Z,100012.22
2022-08-17T10:47:09.200Z,100019.41
2022-08-17T10:49:47.618Z,100020.50
2022-08-17T10:52:44.604Z,100020.06
2022-08-17T10:55:18.872Z,100029.47
2022-08-17T10:57:50.447Z,100007.09
2022-08-17T11:00:25.604Z,100014.81
2022-08-17T11:02:57.650Z,100026.75
2022-08-17T11:05:59.003Z,100016.47
2022-08-17T11:08:59.454Z,100008.28
2022-08-17T11:11:51.597Z,100008.63
2022-08-17T11:14:44.268Z,100022.78
2022-08-17T11:17:58.211Z,100016.41
2022-08-17T11:21:09.494Z,100019.63
2022-08-17T11:24:20.732Z,100013.44
2022-08-17T11:27:07.842Z,100011.88
2022-08-17T11:30:19.566Z,100000.41
2022-08-17T11:32:54.404Z,100008.09
2022-08-17T11:35:22.939Z,100007.22
2022-08-17T11:38:31.248Z,100009.44
2022-08-17T11:41:41.197Z,100010.28
2022-08-17T11:45:09.307Z,100009.06
2022-08-17T11:48:27.933Z,99994.31
2022-08-17T11:51:47.549Z,99989.66
2022-08-17T11:54:32.877Z,99983.31
2022-08-17T11:57:30.488Z,99971.91
2022-08-17T12:00:11.794Z,99971.19
2022-08-17T12:02:48.317Z,99966.16
2022-08-17T12:05:27.166Z,99963.16
2022-08-17T12:08:21.598Z,99958.56
2022-08-17T12:11:11.158Z,99949.41
2022-08-17T12:13:48.449Z,99928.63
2022-08-17T12:16:19.535Z,99928.91
2022-08-17T12:19:02.268Z,99926.75
2022-08-17T12:21:58.040Z,99918.53
2022-08-17T12:24:56.627Z,99912.78
2022-08-17T12:28:04.656Z,99915.44
2022-08-17T12:30:22.441Z,99921.06
2022-08-17T12:32:51.002Z,99907.84
2022-08-17T12:35:35.856Z,99930.75
2022-08-17T12:38:22.290Z,99929.28
2022-08-17T12:40:58.318Z,99929.16
2022-08-17T12:43:31.247Z,99929.31
2022-08-17T12:46:13.278Z,99928.13
2022-08-17T12:48:59.932Z,99937.19
2022-08-17T12:51:29.747Z,99930.13
2022-08-17T12:53:59.020Z,99938.13
2022-08-17T12:56:27.418Z,99928.59
2022-08-17T12:58:56.744Z,99936.75
2022-08-17T13:01:26.143Z,99925.44
2022-08-17T13:04:00.852Z,99921.78
2022-08-17T13:06:36.868Z,99928.34
2022-08-17T13:09:40.051Z,99922.38
2022-08-17T13:12:09.057Z,99922.84
2022-08-17T13:14:37.041Z,99924.00
2022-08-17T13:17:12.646Z,99913.50
2022-08-17T13:19:50.401Z,99902.53
2022-08-17T13:22:22.879Z,99891.50
2022-08-17T13:25:05.384Z,99892.34
2022-08-17T13:27:34.387Z,99900.94
2022-08-17T13:30:11.997Z,99901.41
2022-08-17T13:32:45.686Z,99896.09
2022-08-17T13:35:39.807Z,99893.34
2022-08-17T13:38:17.478Z,99883.34
2022-08-17T13:40:52.346Z,99882.31
2022-08-17T13:43:45.020Z,99877.31
2022-08-17T13:46:21.172Z,99878.63
2022-08-17T13:49:06.602Z,99866.22
2022-08-17T13:51:54.874Z,99863.09
2022-08-17T13:54:34.478Z,99850.44
2022-08-17T13:57:22.755Z,99851.56
2022-08-17T14:00:06.014Z,99842.97
2022-08-17T14:02:36.646Z,99828.78
2022-08-17T14:05:06.297Z,99847.94
2022-08-17T14:07:40.370Z,99844.16
2022-08-17T14:10:17.511Z,99842.81
2022-08-17T14:12:53.919Z,99825.91
2022-08-17T14:15:25.122Z,99825.13
2022-08-17T14:18:13.029Z,99821.28
2022-08-17T14:20:41.022Z,99822.41
2022-08-17T14:23:09.323Z,99820.28
2022-08-17T14:25:37.439Z,99804.03
2022-08-17T14:28:07.221Z,99804.63
2022-08-17T14:30:37.826Z,99795.53
2022-08-17T14:33:06.069Z,99811.16
2022-08-17T14:35:34.626Z,99815.22
2022-08-17T14:38:02.766Z,99808.84
2022-08-17T14:40:31.166Z,99815.22
2022-08-17T14:42:59.778Z,99799.72
2022-08-17T14:45:32.587Z,99815.84
2022-08-17T14:48:07.945Z,99802.13
2022-08-17T14:50:38.836Z,99812.91
2022-08-17T14:53:11.349Z,99807.88
2022-08-17T14:55:42.319Z,99814.22
2022-08-17T14:58:11.170Z,99818.03
2022-08-17T15:00:42.461Z,99807.03
2022-08-17T15:03:11.765Z,99795.88
2022-08-17T15:05:41.349Z,99795.47
2022-08-17T15:08:11.022Z,99800.38
2022-08-17T15:10:39.369Z,99808.88
2022-08-17T15:13:24.531Z,99814.22
2022-08-17T15:15:53.401Z,99820.56
2022-08-17T15:18:21.630Z,99813.63
2022-08-17T15:20:50.413Z,99798.28
2022-08-17T15:23:22.697Z,99798.38
2022-08-17T15:25:54.000Z,99795.50
2022-08-17T15:28:25.415Z,99793.00
2022-08-17T15:30:54.208Z,99785.59
2022-08-17T15:33:29.459Z,99795.81
2022-08-17T15:36:02.442Z,99795.03
2022-08-17T15:38:34.105Z,99795.91
2022-08-17T15:41:03.636Z,99787.47
2022-08-17T15:43:32.688Z,99798.69
2022-08-17T15:46:15.389Z,99807.03
2022-08-17T15:48:47.727Z,99780.53
2022-08-17T15:51:26.348Z,99790.34
2022-08-17T15:53:58.611Z,99779.13
2022-08-17T15:56:28.451Z,99785.94
2022-08-17T15:58:56.567Z,99775.97
2022-08-17T16:02:11.961Z,99782.72
2022-08-17T16:04:30.401Z,99792.03
2022-08-17T16:07:00.135Z,99789.34
2022-08-17T16:09:28.963Z,99788.69
2022-08-17T16:11:56.912Z,99788.88
2022-08-17T16:14:30.275Z,99789.94
2022-08-17T16:17:01.909Z,99785.09
2022-08-17T16:19:30.485Z,99788.06
2022-08-17T16:21:58.774Z,99788.91
2022-08-17T16:24:27.105Z,99793.56
2022-08-17T16:26:59.927Z,99802.03
2022-08-17T16:29:28.395Z,99800.13
2022-08-17T16:31:57.684Z,99799.47
2022-08-17T16:34:26.144Z,99796.28
2022-08-17T16:36:56.462Z,99791.78
2022-08-17T16:39:28.106Z,99784.97
2022-08-17T16:41:57.956Z,99775.81
2022-08-17T16:44:31.808Z,99785.16
2022-08-17T16:47:01.321Z,99775.34
2022-08-17T16:49:37.481Z,99779.09
2022-08-17T16:52:10.899Z,99773.19
2022-08-17T16:54:44.886Z,99773.78
2022-08-17T16:57:14.599Z,99774.97
2022-08-17T16:59:51.194Z,99776.88
2022-08-17T17:02:31.714Z,99781.41
2022-08-17T17:05:33.545Z,99776.47
2022-08-17T17:08:14.209Z,99767.97
2022-08-17T17:10:51.552Z,99761.13
2022-08-17T17:13:36.358Z,99766.78
2022-08-17T17:16:29.072Z,99761.84
2022-08-17T17:19:09.488Z,99754.19
2022-08-17T17:22:16.960Z,99743.53
2022-08-17T17:25:04.015Z,99754.22
2022-08-17T17:28:35.636Z,99750.31
2022-08-17T17:31:08.301Z,99743.72
2022-08-17T17:33:51.041Z,99751.06
2022-08-17T17:36:40.784Z,99742.22
2022-08-17T17:39:49.904Z,99747.78
2022-08-17T17:42:24.822Z,99742.31
2022-08-17T17:45:06.250Z,99737.25
2022-08-17T17:47:35.266Z,99729.31
2022-08-17T17:50:11.841Z,99735.44
2022-08-17T17:52:47.542Z,99738.97
2022-08-17T17:55:42.329Z,99736.78
2022-08-17T17:58:33.428Z,99738.19
2022-08-17T18:01:39.261Z,99740.44
2022-08-17T18:04:36.644Z,99740.00
2022-08-17T18:07:20.152Z,99743.78
2022-08-17T18:10:19.469Z,99740.38
2022-08-17T18:13:20.682Z,99743.41
2022-08-17T18:15:52.983Z,99749.28
2022-08-17T18:18:40.285Z,99749.19
2022-08-17T18:21:29.780Z,99756.28
2022-08-17T18:24:03.090Z,99762.31
2022-08-17T18:26:57.657Z,99746.72
2022-08-17T18:29:30.523Z,99758.44
2022-08-17T18:32:27.306Z,99759.16
2022-08-17T18:35:08.785Z,99766.25
2022-08-17T18:37:53.616Z,99762.63
2022-08-17T18:40:36.288Z,99767.16
2022-08-17T18:43:14.397Z,99771.50
2022-08-17T18:45:56.394Z,99766.31
2022-08-17T18:48:49.419Z,99761.38
2022-08-17T18:51:40.596Z,99767.41
2022-08-17T18:54:26.205Z,99768.16
2022-08-17T18:57:02.029Z,99765.13
2022-08-17T18:59:50.179Z,99767.56
2022-08-17T19:02:36.090Z,99758.19
2022-08-17T19:05:36.810Z,99777.50
2022-08-17T19:08:35.129Z,99779.50
2022-08-17T19:11:10.100Z,99782.69
2022-08-17T19:14:17.301Z,99791.59
2022-08-17T19:17:00.584Z,99792.00
2022-08-17T19:19:36.650Z,99786.38
2022-08-17T19:22:53.394Z,99797.38
2022-08-17T19:25:34.304Z,99810.19
2022-08-17T19:28:22.869Z,99811.19
2022-08-17T19:31:00.488Z,99809.78
2022-08-17T19:33:31.726Z,99806.19
2022-08-17T19:36:13.275Z,99811.66
2022-08-17T19:39:12.645Z,99803.50
2022-08-17T19:41:48.294Z,99809.19
2022-08-17T19:44:47.072Z,99813.75
2022-08-17T19:47:55.405Z,99804.88
2022-08-17T19:50:56.672Z,99808.31
2022-08-17T19:54:05.467Z,99815.34
2022-08-17T19:57:01.761Z,99786.03
2022-08-17T19:59:55.674Z,99801.22
2022-08-17T20:03:07.953Z,99796.44
2022-08-17T20:06:15.068Z,99796.78
2022-08-17T20:08:58.232Z,99792.88
2022-08-17T20:11:53.838Z,99781.09
2022-08-17T20:14:33.025Z,99779.72
2022-08-17T20:17:03.410Z,99797.09
2022-08-17T20:20:23.353Z,99803.44
2022-08-17T20:23:04.141Z,99804.97
2022-08-17T20:25:47.100Z,99806.16
2022-08-17T20:28:38.972Z,99802.41
2022-08-17T20:31:46.370Z,99798.41
2022-08-17T20:34:31.009Z,99805.94
2022-08-17T20:37:20.258Z,99802.31
2022-08-17T20:39:52.829Z,99813.09
2022-08-17T20:42:21.888Z,99822.66
2022-08-17T20:44:57.847Z,99798.28
2022-08-17T20:48:07.365Z,99825.38
2022-08-17T20:50:50.800Z,99813.97
2022-08-17T20:53:47.652Z,99822.63
2022-08-17T20:56:43.588Z,99830.75
2022-08-17T20:59:27.728Z,99842.00
2022-08-17T21:02:18.801Z,99846.75
2022-08-17T21:04:50.851Z,99845.97
2022-08-17T21:07:42.720Z,99847.72
2022-08-17T21:10:35.881Z,99849.66
2022-08-17T21:13:15.631Z,99862.78
2022-08-17T21:16:07.063Z,99863.44
2022-08-17T21:19:16.941Z,99869.06
2022-08-17T21:22:32.696Z,99865.16
2022-08-17T21:25:49.054Z,99846.06
2022-08-17T21:28:23.219Z,99854.41
2022-08-17T21:31:09.142Z,99855.78
2022-08-17T21:33:39.666Z,99863.44
2022-08-17T21:36:13.377Z,99865.00
2022-08-17T21:38:47.463Z,99879.66
2022-08-17T21:41:31.030Z,99872.13
2022-08-17T21:44:26.719Z,99879.78
2022-08-17T21:47:43.602Z,99897.66
2022-08-17T21:50:25.948Z,99886.59
2022-08-17T21:53:02.981Z,99879.94
2022-08-17T21:55:34.267Z,99893.25
2022-08-17T21:58:14.362Z,99903.56
2022-08-17T22:00:46.491Z,99904.44
2022-08-17T22:03:28.753Z,99901.47
2022-08-17T22:05:56.578Z,99914.50
2022-08-17T22:08:26.978Z,99920.31
2022-08-17T22:11:02.347Z,99918.97
2022-08-17T22:13:30.671Z,99907.34
2022-08-17T22:16:28.564Z,99922.06
2022-08-17T22:18:59.503Z,99925.44
2022-08-17T22:21:27.751Z,99943.50
2022-08-17T22:24:04.478Z,99945.38
2022-08-17T22:27:03.023Z,99956.09
2022-08-17T22:29:59.518Z,99963.78
2022-08-17T22:32:41.621Z,99961.56
2022-08-17T22:35:32.541Z,99977.78
2022-08-17T22:38:18.920Z,99986.25
2022-08-17T22:41:16.636Z,99989.16
2022-08-17T22:43:44.986Z,99998.34
2022-08-17T22:46:15.346Z,100006.34
2022-08-17T22:48:51.017Z,100021.38
2022-08-17T22:51:24.020Z,100031.09
2022-08-17T22:54:34.032Z,100030.22
2022-08-17T22:57:23.468Z,100024.59
2022-08-17T22:59:56.452Z,100027.44
2022-08-17T23:02:34.258Z,100034.78
2022-08-17T23:05:14.164Z,100035.63
2022-08-17T23:07:46.116Z,100023.38
2022-08-17T23:10:19.337Z,100022.81
2022-08-17T23:12:48.582Z,100025.84
2022-08-17T23:15:19.304Z,100020.75
2022-08-17T23:17:49.452Z,100028.00
2022-08-17T23:20:18.581Z,100023.56
2022-08-17T23:22:52.040Z,100035.09
2022-08-17T23:25:31.744Z,100036.09
2022-08-17T23:28:03.364Z,100032.31
2022-08-17T23:30:36.761Z,100034.50
2022-08-17T23:33:10.412Z,100040.25
2022-08-17T23:35:40.564Z,100028.56
2022-08-17T23:38:13.712Z,100020.13
2022-08-17T23:40:43.504Z,100018.41
2022-08-17T23:43:24.371Z,100019.09
2022-08-17T23:45:59.617Z,100010.53
2022-08-17T23:48:36.159Z,100017.47
2022-08-17T23:51:18.997Z,100024.31
2022-08-17T23:53:53.943Z,100005.66
2022-08-17T23:56:25.892Z,100016.53
2022-08-17T23:58:55.839Z,100012.28
